createdAt,value
2023-03-08T00:04:36.106Z,54.67
2023-03-08T00:10:00.602Z,57.65
2023-03-08T00:15:29.067Z,48.97
2023-03-08T00:20:59.655Z,51.50
2023-03-08T00:26:24.618Z,42.38
2023-03-08T00:31:47.559Z,51.38
2023-03-08T00:37:11.178Z,46.33
2023-03-08T00:42:40.920Z,44.20
2023-03-08T00:48:05.084Z,43.67
2023-03-08T00:53:27.997Z,47.17
2023-03-08T00:58:51.718Z,49.78
2023-03-08T01:04:16.924Z,44.63
2023-03-08T01:09:45.063Z,40.08
2023-03-08T01:15:17.305Z,36.92
2023-03-08T01:20:40.303Z,53.33
2023-03-08T01:26:04.843Z,47.72
2023-03-08T01:31:30.596Z,50.00
2023-03-08T01:36:55.670Z,45.35
2023-03-08T01:42:18.705Z,51.90
2023-03-08T01:47:47.930Z,48.67
2023-03-08T01:53:16.306Z,47.67
2023-03-08T01:58:40.171Z,56.17
2023-03-08T02:04:07.155Z,49.75
2023-03-08T02:09:35.755Z,49.28
2023-03-08T02:15:04.775Z,62.83
2023-03-08T02:20:36.381Z,88.68
2023-03-08T02:26:12.220Z,86.20
2023-03-08T02:31:40.936Z,69.72
2023-03-08T02:37:10.162Z,59.25
2023-03-08T02:42:40.124Z,61.20
2023-03-08T02:48:07.292Z,51.30
2023-03-08T02:53:35.708Z,52.33
2023-03-08T02:59:06.040Z,45.40
2023-03-08T03:04:34.998Z,48.08
2023-03-08T03:10:00.454Z,50.55
2023-03-08T03:15:25.529Z,48.85
2023-03-08T03:20:52.464Z,50.60
2023-03-08T03:26:16.158Z,50.13
2023-03-08T03:32:09.514Z,54.20
2023-03-08T03:37:39.175Z,60.17
2023-03-08T03:43:02.762Z,67.93
2023-03-08T03:48:31.700Z,63.40
2023-03-08T03:54:01.576Z,72.55
2023-03-08T03:59:30.932Z,70.30
2023-03-08T04:04:59.521Z,70.57
2023-03-08T04:10:33.665Z,68.35
2023-03-08T04:15:57.254Z,76.10
2023-03-08T04:21:26.196Z,75.03
2023-03-08T04:26:58.018Z,82.97
2023-03-08T04:32:27.037Z,69.40
2023-03-08T04:37:58.686Z,77.18
2023-03-08T04:43:25.533Z,74.47
2023-03-08T04:48:48.572Z,73.85
2023-03-08T04:54:13.404Z,66.72
2023-03-08T04:59:49.011Z,68.65
2023-03-08T05:05:13.009Z,68.50
2023-03-08T05:10:36.936Z,70.53
2023-03-08T05:16:01.453Z,103.07
2023-03-08T05:21:25.534Z,124.10
2023-03-08T05:26:54.191Z,135.80
2023-03-08T05:32:18.858Z,136.27
2023-03-08T05:37:41.988Z,137.90
2023-03-08T05:43:05.015Z,136.65
2023-03-08T05:48:30.004Z,127.35
2023-03-08T05:53:53.328Z,129.13
2023-03-08T05:59:16.610Z,114.70
2023-03-08T06:04:41.388Z,109.38
2023-03-08T06:10:06.725Z,114.43
2023-03-08T06:15:30.363Z,100.07
2023-03-08T06:21:02.251Z,99.03
2023-03-08T06:26:29.929Z,106.68
2023-03-08T06:32:01.623Z,138.45
2023-03-08T06:37:35.331Z,113.03
2023-03-08T06:43:04.944Z,117.15
2023-03-08T06:48:34.778Z,108.55
2023-03-08T06:54:05.766Z,106.20
2023-03-08T06:59:35.354Z,105.93
2023-03-08T07:05:01.258Z,92.65
2023-03-08T07:10:26.120Z,85.68
2023-03-08T07:15:54.983Z,76.28
2023-03-08T07:21:18.568Z,65.68
2023-03-08T07:26:42.571Z,58.47
2023-03-08T07:32:05.519Z,67.35
2023-03-08T07:37:28.468Z,56.90
2023-03-08T07:42:53.131Z,65.63
2023-03-08T07:48:26.044Z,55.88
2023-03-08T07:53:48.876Z,46.40
2023-03-08T07:59:12.964Z,37.80
2023-03-08T08:04:36.710Z,42.47
2023-03-08T08:10:00.471Z,41.28
2023-03-08T08:15:25.715Z,35.42
2023-03-08T08:20:48.337Z,54.35
2023-03-08T08:26:12.371Z,48.03
2023-03-08T08:31:36.842Z,48.47
2023-03-08T08:37:00.292Z,38.88
2023-03-08T08:42:27.881Z,47.08
2023-03-08T08:47:52.271Z,43.78
2023-03-08T08:53:15.376Z,40.03
2023-03-08T08:58:39.054Z,36.58
2023-03-08T09:04:03.074Z,35.67
2023-03-08T09:09:26.965Z,30.05
2023-03-08T09:14:51.261Z,28.63
2023-03-08T09:20:15.601Z,33.95
2023-03-08T09:25:39.173Z,32.03
2023-03-08T09:31:09.920Z,24.85
2023-03-08T09:36:33.902Z,20.63
2023-03-08T09:41:58.198Z,23.42
2023-03-08T09:47:27.711Z,19.92
2023-03-08T09:53:00.261Z,14.55
2023-03-08T09:58:32.015Z,17.38
2023-03-08T10:04:12.036Z,12.02
2023-03-08T10:09:40.119Z,13.15
2023-03-08T10:15:05.999Z,15.48
2023-03-08T10:20:31.262Z,15.85
2023-03-08T10:25:54.795Z,13.20
2023-03-08T10:36:52.116Z,10.07
2023-03-08T10:42:23.637Z,12.85
2023-03-08T10:47:55.669Z,13.85
2023-03-08T10:53:23.233Z,14.93
2023-03-08T10:58:48.327Z,7.50
2023-03-08T11:04:17.598Z,9.45
2023-03-08T11:09:41.168Z,8.10
2023-03-08T11:15:13.603Z,13.80
2023-03-08T11:20:45.631Z,8.07
2023-03-08T11:26:19.744Z,15.48
2023-03-08T11:31:51.778Z,7.43
2023-03-08T11:37:27.084Z,11.10
2023-03-08T11:42:56.263Z,10.23
2023-03-08T11:48:39.104Z,9.88
2023-03-08T11:54:10.687Z,13.68
2023-03-08T11:59:40.740Z,11.25
2023-03-08T12:05:13.544Z,9.75
2023-03-08T12:10:45.044Z,10.75
2023-03-08T12:16:15.146Z,11.82
2023-03-08T12:21:43.666Z,8.07
2023-03-08T12:27:07.200Z,8.02
2023-03-08T12:32:33.889Z,10.07
2023-03-08T12:38:05.163Z,11.15
2023-03-08T12:43:32.756Z,9.02
2023-03-08T12:49:01.045Z,10.35
2023-03-08T12:54:30.137Z,13.40
2023-03-08T12:59:57.468Z,14.45
2023-03-08T13:05:30.849Z,11.38
2023-03-08T13:11:01.005Z,11.82
2023-03-08T13:16:32.057Z,5.88
2023-03-08T13:22:06.017Z,9.05
2023-03-08T13:27:36.207Z,11.25
2023-03-08T13:33:00.141Z,11.02
2023-03-08T13:38:26.036Z,7.68
2023-03-08T13:44:02.792Z,6.25
2023-03-08T13:49:30.531Z,13.70
2023-03-08T13:55:00.285Z,10.52
2023-03-08T14:00:27.089Z,11.75
2023-03-08T14:05:50.254Z,13.05
2023-03-08T14:11:20.718Z,10.90
2023-03-08T14:16:44.915Z,9.65
2023-03-08T14:22:12.399Z,9.50
2023-03-08T14:27:38.667Z,11.13
2023-03-08T14:33:22.045Z,11.05
2023-03-08T14:38:49.243Z,9.77
2023-03-08T14:44:20.503Z,15.80
2023-03-08T14:49:57.104Z,11.32
2023-03-08T14:55:26.822Z,13.85
2023-03-08T15:00:51.681Z,7.32
2023-03-08T15:06:23.249Z,8.20
2023-03-08T15:11:53.321Z,8.45
2023-03-08T15:17:20.102Z,14.48
2023-03-08T15:22:45.617Z,8.27
2023-03-08T15:28:08.096Z,8.95
2023-03-08T15:33:37.314Z,11.02
2023-03-08T15:39:04.645Z,13.60
2023-03-08T15:44:32.438Z,9.90
2023-03-08T15:50:01.733Z,11.77
2023-03-08T15:55:31.998Z,8.52
2023-03-08T16:01:01.013Z,17.20
2023-03-08T16:06:29.870Z,21.95
2023-03-08T16:11:54.749Z,16.27
2023-03-08T16:17:19.029Z,33.65
2023-03-08T16:22:41.981Z,16.35
2023-03-08T16:28:06.677Z,17.45
2023-03-08T16:33:29.564Z,17.60
2023-03-08T16:38:54.582Z,17.73
2023-03-08T16:44:21.344Z,24.95
2023-03-08T16:49:44.078Z,17.40
2023-03-08T16:55:07.819Z,12.85
2023-03-08T17:00:32.236Z,13.27
2023-03-08T17:05:54.923Z,13.98
2023-03-08T17:11:18.122Z,12.60
2023-03-08T17:16:43.514Z,12.40
2023-03-08T17:22:06.900Z,12.25
2023-03-08T17:27:30.102Z,18.85
2023-03-08T17:32:54.129Z,15.00
2023-03-08T17:38:17.426Z,14.57
2023-03-08T17:43:41.397Z,11.90
2023-03-08T17:49:06.211Z,17.58
2023-03-08T17:54:29.545Z,12.43
2023-03-08T17:59:53.365Z,10.00
2023-03-08T18:05:18.047Z,12.95
2023-03-08T18:10:41.034Z,12.48
2023-03-08T18:16:05.889Z,9.52
2023-03-08T18:21:30.527Z,8.80
2023-03-08T18:26:54.923Z,10.60
2023-03-08T18:32:18.048Z,10.30
2023-03-08T18:37:42.421Z,6.55
2023-03-08T18:43:05.734Z,6.32
2023-03-08T18:48:28.960Z,8.38
2023-03-08T18:53:54.195Z,10.05
2023-03-08T18:59:23.623Z,10.57
2023-03-08T19:04:47.026Z,8.73
2023-03-08T19:10:15.165Z,7.85
2023-03-08T19:15:38.926Z,8.32
2023-03-08T19:21:01.850Z,8.23
2023-03-08T19:26:37.905Z,9.27
2023-03-08T19:32:01.773Z,7.85
2023-03-08T19:37:24.485Z,6.75
2023-03-08T19:42:52.283Z,13.18
2023-03-08T19:48:15.348Z,10.57
2023-03-08T19:53:39.048Z,11.52
2023-03-08T19:59:02.878Z,11.73
2023-03-08T20:04:25.529Z,8.02
2023-03-08T20:09:48.510Z,10.35
2023-03-08T20:15:13.408Z,9.13
2023-03-08T20:20:36.685Z,9.73
2023-03-08T20:25:59.219Z,8.00
2023-03-08T20:31:30.686Z,14.60
2023-03-08T20:36:59.016Z,7.57
2023-03-08T20:42:27.916Z,19.73
2023-03-08T20:47:54.697Z,8.27
2023-03-08T20:53:23.351Z,9.35
2023-03-08T20:58:54.559Z,11.00
2023-03-08T21:04:19.395Z,15.98
2023-03-08T21:09:48.400Z,14.23
2023-03-08T21:15:17.357Z,14.95
2023-03-08T21:20:47.503Z,15.90
2023-03-08T21:26:13.999Z,10.60
2023-03-08T21:31:42.011Z,11.55
2023-03-08T21:37:07.165Z,10.32
2023-03-08T21:42:31.534Z,11.32
2023-03-08T21:47:56.228Z,12.68
2023-03-08T21:53:26.177Z,15.47
2023-03-08T21:58:52.353Z,13.80
2023-03-08T22:04:19.011Z,9.52
2023-03-08T22:09:49.578Z,11.45
2023-03-08T22:15:18.323Z,11.02
2023-03-08T22:20:44.499Z,13.32
2023-03-08T22:26:10.395Z,13.30
2023-03-08T22:31:38.895Z,13.20
2023-03-08T22:37:07.251Z,10.55
2023-03-08T22:42:35.882Z,10.45
2023-03-08T22:48:00.605Z,10.30
2023-03-08T22:53:29.062Z,10.07
2023-03-08T22:58:55.116Z,25.45
2023-03-08T23:04:23.788Z,16.17
2023-03-08T23:09:53.259Z,22.02
2023-03-08T23:15:19.189Z,24.48
2023-03-08T23:20:42.207Z,20.70
2023-03-08T23:26:05.981Z,18.55
2023-03-08T23:31:31.135Z,25.27
2023-03-08T23:36:54.428Z,20.23
